Terminal Aerodrome Forecast
Issued by NWS

Home | Current Version | Previous Version | Text Only | Print | Product List | Glossary On
Versions: 1 2 3 4 5 6 7 8 9 10 11 12 13 14 15 16
000
FTUS45 KCYS 240551
TAFLAR
TAF
KLAR 240551Z 2406/2506 15008KT P6SM VCSH BKN050
     FM241500 34009KT 2SM -SN OVC015
     FM242100 34012KT 4SM -SN OVC025=

USA.gov is the U.S. government's official web portal to all federal, state and local government web resources and services.